createdAt,value
2018-05-17T00:00:20.058Z,9.99
2018-05-17T00:01:19.522Z,9.98
2018-05-17T00:02:19.970Z,9.98
2018-05-17T00:03:19.622Z,9.95
2018-05-17T00:04:19.917Z,9.92
2018-05-17T00:05:19.434Z,9.89
2018-05-17T00:06:19.998Z,9.87
2018-05-17T00:07:19.343Z,9.86
2018-05-17T00:08:19.708Z,9.84
2018-05-17T00:09:20.023Z,9.84
2018-05-17T00:10:19.486Z,9.84
2018-05-17T00:11:20.063Z,9.83
2018-05-17T00:12:41.135Z,9.84
2018-05-17T00:13:41.639Z,9.80
2018-05-17T00:14:40.900Z,9.83
2018-05-17T00:15:41.394Z,9.80
2018-05-17T00:17:02.883Z,9.80
2018-05-17T00:18:03.291Z,9.80
2018-05-17T00:19:03.650Z,9.79
2018-05-17T00:20:03.244Z,9.76
2018-05-17T00:21:04.880Z,9.74
2018-05-17T00:22:03.421Z,9.73
2018-05-17T00:23:03.998Z,9.74
2018-05-17T00:24:03.531Z,9.73
2018-05-17T00:25:24.102Z,9.74
2018-05-17T00:26:24.535Z,9.74
2018-05-17T00:27:25.057Z,9.74
2018-05-17T00:28:24.824Z,9.74
2018-05-17T00:29:24.254Z,9.73
2018-05-17T00:30:24.838Z,9.74
2018-05-17T00:31:24.334Z,9.76
2018-05-17T00:32:24.558Z,9.77
2018-05-17T00:33:24.176Z,9.82
2018-05-17T00:34:24.685Z,9.80
2018-05-17T00:35:24.092Z,9.77
2018-05-17T00:36:24.450Z,9.76
2018-05-17T00:37:24.952Z,9.76
2018-05-17T00:38:24.490Z,9.74
2018-05-17T00:39:24.768Z,9.76
2018-05-17T00:40:24.354Z,9.76
2018-05-17T00:41:24.773Z,9.77
2018-05-17T00:42:24.406Z,9.79
2018-05-17T00:43:25.069Z,9.80
2018-05-17T00:44:45.871Z,9.82
2018-05-17T00:45:46.393Z,9.80
2018-05-17T00:46:45.923Z,9.76
2018-05-17T00:47:46.282Z,9.73
2018-05-17T00:49:07.858Z,9.69
2018-05-17T00:50:07.322Z,9.73
2018-05-17T00:51:07.850Z,9.68
2018-05-17T00:52:07.946Z,9.66
2018-05-17T00:53:07.531Z,9.66
2018-05-17T00:54:07.211Z,9.66
2018-05-17T00:55:50.106Z,9.72
2018-05-17T00:57:12.013Z,9.68
2018-05-17T00:58:12.661Z,9.65
2018-05-17T00:59:33.209Z,9.65
2018-05-17T01:00:34.387Z,9.62
2018-05-17T01:01:33.982Z,9.64
2018-05-17T01:02:33.813Z,9.64
2018-05-17T01:03:34.159Z,9.64
2018-05-17T01:04:33.668Z,9.64
2018-05-17T01:05:33.668Z,9.62
2018-05-17T01:06:33.121Z,9.61
2018-05-17T01:07:33.381Z,9.56
2018-05-17T01:08:33.955Z,9.62
2018-05-17T01:09:33.287Z,9.59
2018-05-17T01:10:33.717Z,9.58
2018-05-17T01:11:33.189Z,9.61
2018-05-17T01:12:33.555Z,9.64
2018-05-17T01:13:34.295Z,9.62
2018-05-17T01:14:33.702Z,9.61
2018-05-17T01:15:55.207Z,9.65
2018-05-17T01:16:56.838Z,9.62
2018-05-17T01:17:56.385Z,9.61
2018-05-17T01:18:55.813Z,9.62
2018-05-17T01:19:56.175Z,9.61
2018-05-17T01:20:55.587Z,9.62
2018-05-17T01:21:56.106Z,9.64
2018-05-17T01:22:55.791Z,9.61
2018-05-17T01:23:56.390Z,9.58
2018-05-17T01:24:55.736Z,9.58
2018-05-17T01:25:55.222Z,9.62
2018-05-17T01:26:55.655Z,9.65
2018-05-17T01:27:56.267Z,9.65
2018-05-17T01:28:55.864Z,9.62
2018-05-17T01:29:56.192Z,9.61
2018-05-17T01:30:55.482Z,9.61
2018-05-17T01:31:55.778Z,9.58
2018-05-17T01:32:56.275Z,9.56
2018-05-17T01:33:55.849Z,9.56
2018-05-17T01:34:56.453Z,9.59
2018-05-17T01:35:56.036Z,9.61
2018-05-17T01:36:55.451Z,9.61
2018-05-17T01:37:56.147Z,9.61
2018-05-17T01:38:55.901Z,9.58
2018-05-17T01:39:55.223Z,9.61
2018-05-17T01:40:55.806Z,9.64
2018-05-17T01:41:55.291Z,9.65
2018-05-17T01:42:55.767Z,9.62
2018-05-17T01:43:55.421Z,9.61
2018-05-17T01:44:56.093Z,9.59
2018-05-17T01:45:55.404Z,9.59
2018-05-17T01:46:55.914Z,9.56
2018-05-17T01:47:55.463Z,9.59
2018-05-17T01:48:56.085Z,9.59
2018-05-17T01:49:55.510Z,9.59
2018-05-17T01:50:55.910Z,9.59
2018-05-17T01:51:55.379Z,9.56
2018-05-17T01:52:55.847Z,9.59
2018-05-17T01:54:16.146Z,9.58
2018-05-17T01:55:17.572Z,9.58
2018-05-17T01:56:16.918Z,9.58
2018-05-17T01:57:16.686Z,9.56
2018-05-17T01:58:17.410Z,9.56
2018-05-17T01:59:16.806Z,9.59
2018-05-17T02:00:16.227Z,9.61
2018-05-17T02:01:16.798Z,9.65
2018-05-17T02:02:16.344Z,9.65
2018-05-17T02:03:17.170Z,9.66
2018-05-17T02:04:37.863Z,9.64
2018-05-17T02:05:38.446Z,9.64
2018-05-17T02:06:37.900Z,9.62
2018-05-17T02:07:38.540Z,9.61
2018-05-17T02:08:58.967Z,9.64
2018-05-17T02:09:59.227Z,9.62
2018-05-17T02:10:59.708Z,9.64
2018-05-17T02:11:59.099Z,9.62
2018-05-17T02:12:59.700Z,9.62
2018-05-17T02:13:59.534Z,9.61
2018-05-17T02:15:41.416Z,9.61
2018-05-17T02:16:41.763Z,9.59
2018-05-17T02:18:03.408Z,9.58
2018-05-17T02:19:24.888Z,9.62
2018-05-17T02:20:25.554Z,9.65
2018-05-17T02:21:24.883Z,9.61
2018-05-17T02:22:25.489Z,9.59
2018-05-17T02:23:26.204Z,9.58
2018-05-17T02:24:25.638Z,9.56
2018-05-17T02:25:25.213Z,9.59
2018-05-17T02:26:25.542Z,9.61
2018-05-17T02:27:25.935Z,9.62
2018-05-17T02:28:26.479Z,9.62
2018-05-17T02:29:25.929Z,9.62
2018-05-17T02:30:25.985Z,9.59
2018-05-17T02:31:25.544Z,9.58
2018-05-17T02:32:25.870Z,9.59
2018-05-17T02:33:25.235Z,9.59
2018-05-17T02:34:25.508Z,9.56
2018-05-17T02:35:25.138Z,9.58
2018-05-17T02:36:25.730Z,9.58
2018-05-17T02:37:25.101Z,9.56
2018-05-17T02:38:47.476Z,9.59
2018-05-17T02:40:00.558Z,9.59
2018-05-17T02:40:48.050Z,9.58
2018-05-17T02:42:08.575Z,9.56
2018-05-17T02:43:09.012Z,9.54
2018-05-17T02:44:31.509Z,9.55
2018-05-17T02:45:31.960Z,9.54
2018-05-17T02:46:31.327Z,9.51
2018-05-17T02:47:31.875Z,9.51
2018-05-17T02:48:31.214Z,9.54
2018-05-17T02:49:31.515Z,9.51
2018-05-17T02:50:31.874Z,9.51
2018-05-17T02:51:32.294Z,9.47
2018-05-17T02:52:31.732Z,9.48
2018-05-17T02:53:32.011Z,9.47
2018-05-17T02:54:31.423Z,9.47
2018-05-17T02:55:31.877Z,9.48
2018-05-17T02:56:31.252Z,9.48
2018-05-17T02:57:31.912Z,9.50
2018-05-17T02:58:31.630Z,9.51
2018-05-17T02:59:31.872Z,9.54
2018-05-17T03:00:31.419Z,9.54
2018-05-17T03:01:32.549Z,9.55
2018-05-17T03:02:32.192Z,9.51
2018-05-17T03:03:32.976Z,9.47
2018-05-17T03:04:31.478Z,9.44
2018-05-17T03:05:32.586Z,9.44
2018-05-17T03:06:31.958Z,9.43
2018-05-17T03:07:31.767Z,9.43
2018-05-17T03:08:31.304Z,9.37
2018-05-17T03:09:31.639Z,9.36
2018-05-17T03:10:32.418Z,9.34
2018-05-17T03:11:32.233Z,9.31
2018-05-17T03:12:31.748Z,9.32
2018-05-17T03:13:31.358Z,9.34
2018-05-17T03:14:53.154Z,9.34
2018-05-17T03:15:53.634Z,9.36
2018-05-17T03:16:53.284Z,9.34
2018-05-17T03:17:53.767Z,9.32
2018-05-17T03:18:53.153Z,9.34
2018-05-17T03:19:53.659Z,9.37
2018-05-17T03:20:54.054Z,9.40
2018-05-17T03:21:53.446Z,9.43
2018-05-17T03:22:54.129Z,9.46
2018-05-17T03:23:53.509Z,9.46
2018-05-17T03:24:54.073Z,9.47
2018-05-17T03:25:53.802Z,9.50
2018-05-17T03:26:53.460Z,9.54
2018-05-17T03:27:54.024Z,9.55
2018-05-17T03:28:53.686Z,9.61
2018-05-17T03:29:53.072Z,9.58
2018-05-17T03:30:53.443Z,9.51
2018-05-17T03:31:54.059Z,9.51
2018-05-17T03:32:53.461Z,9.51
2018-05-17T03:33:53.148Z,9.55
2018-05-17T03:34:54.170Z,9.56
2018-05-17T03:36:14.818Z,9.58
2018-05-17T03:37:15.529Z,9.59
2018-05-17T03:38:36.333Z,9.55
2018-05-17T03:39:36.794Z,9.51
2018-05-17T03:40:37.064Z,9.51
2018-05-17T03:41:36.372Z,9.55
2018-05-17T03:42:36.784Z,9.55
2018-05-17T03:43:36.346Z,9.58
2018-05-17T03:44:36.914Z,9.59
2018-05-17T03:45:36.367Z,9.59
2018-05-17T03:46:36.854Z,9.61
2018-05-17T03:47:36.486Z,9.61
2018-05-17T03:48:36.952Z,9.62
2018-05-17T03:49:36.856Z,9.61
2018-05-17T03:50:36.358Z,9.59
2018-05-17T03:51:37.086Z,9.61
2018-05-17T03:52:36.705Z,9.62
2018-05-17T03:53:37.759Z,9.64
2018-05-17T03:54:37.305Z,9.64
2018-05-17T03:55:37.517Z,9.61
2018-05-17T03:56:37.252Z,9.62
2018-05-17T03:57:37.060Z,9.64
2018-05-17T03:58:36.963Z,9.64
2018-05-17T03:59:36.454Z,9.65
2018-05-17T04:00:58.190Z,9.65
2018-05-17T04:01:58.446Z,9.64
2018-05-17T04:02:58.834Z,9.61
2018-05-17T04:03:58.496Z,9.58
2018-05-17T04:04:58.219Z,9.58
2018-05-17T04:05:58.610Z,9.56
2018-05-17T04:06:58.105Z,9.55
2018-05-17T04:07:58.611Z,9.54
2018-05-17T04:08:58.061Z,9.55
2018-05-17T04:09:58.660Z,9.56
2018-05-17T04:11:20.016Z,9.58
2018-05-17T04:12:20.460Z,9.59
2018-05-17T04:13:20.996Z,9.56
2018-05-17T04:14:20.549Z,9.59
2018-05-17T04:15:20.252Z,9.56
2018-05-17T04:16:20.915Z,9.56
2018-05-17T04:17:20.359Z,9.55
2018-05-17T04:18:41.464Z,9.56
2018-05-17T04:19:54.132Z,9.58
2018-05-17T04:20:41.545Z,9.61
2018-05-17T04:21:42.186Z,9.61
2018-05-17T04:22:41.826Z,9.64
2018-05-17T04:23:42.235Z,9.64
2018-05-17T04:25:24.963Z,9.64
2018-05-17T04:26:25.476Z,9.65
2018-05-17T04:27:24.968Z,9.69
2018-05-17T04:28:25.666Z,9.72
2018-05-17T04:29:25.138Z,9.77
2018-05-17T04:30:25.658Z,9.79
2018-05-17T04:31:25.560Z,9.79
2018-05-17T04:32:25.282Z,9.77
2018-05-17T04:33:25.125Z,9.79
2018-05-17T04:34:25.500Z,9.80
2018-05-17T04:35:25.012Z,9.82
2018-05-17T04:36:25.541Z,9.83
2018-05-17T04:37:25.055Z,9.86
2018-05-17T04:38:46.631Z,9.86
2018-05-17T04:39:47.396Z,9.82
2018-05-17T04:40:46.827Z,9.82
2018-05-17T04:41:47.337Z,9.80
2018-05-17T04:42:46.806Z,9.77
2018-05-17T04:43:47.492Z,9.76
2018-05-17T04:44:46.866Z,9.76
2018-05-17T04:45:47.391Z,9.76
2018-05-17T04:46:47.254Z,9.79
2018-05-17T04:47:47.114Z,9.83
2018-05-17T04:48:46.958Z,9.83
2018-05-17T04:49:47.394Z,9.87
2018-05-17T04:50:47.282Z,9.94
2018-05-17T04:51:47.063Z,9.94
2018-05-17T04:52:46.769Z,9.95
2018-05-17T04:53:47.350Z,9.97
2018-05-17T04:54:47.447Z,9.98
2018-05-17T04:55:47.242Z,10.04
2018-05-17T04:56:46.976Z,10.05
2018-05-17T04:57:46.852Z,10.07
2018-05-17T04:58:47.539Z,10.07
2018-05-17T04:59:47.213Z,10.05
2018-05-17T05:01:08.168Z,10.13
2018-05-17T05:02:08.683Z,10.19
2018-05-17T05:03:08.428Z,10.22
2018-05-17T05:04:09.035Z,10.17
2018-05-17T05:05:08.605Z,10.15
2018-05-17T05:06:08.099Z,10.13
2018-05-17T05:07:31.948Z,10.16
2018-05-17T05:08:32.875Z,10.17
2018-05-17T05:10:15.605Z,10.16
2018-05-17T05:11:15.137Z,10.17
2018-05-17T05:12:15.948Z,10.22
2018-05-17T05:13:15.409Z,10.20
2018-05-17T05:14:15.425Z,10.17
2018-05-17T05:15:15.836Z,10.20
2018-05-17T05:16:15.481Z,10.23
2018-05-17T05:17:15.443Z,10.30
2018-05-17T05:18:15.034Z,10.28
2018-05-17T05:19:15.580Z,10.31
2018-05-17T05:20:15.435Z,10.28
2018-05-17T05:21:36.480Z,10.31
2018-05-17T05:23:19.825Z,10.31
2018-05-17T05:24:21.240Z,10.35
2018-05-17T05:25:20.040Z,10.40
2018-05-17T05:26:21.293Z,10.41
2018-05-17T05:27:19.812Z,10.48
2018-05-17T05:28:20.443Z,10.51
2018-05-17T05:29:41.436Z,10.59
2018-05-17T05:30:42.106Z,10.61
2018-05-17T05:31:41.834Z,10.63
2018-05-17T05:32:41.825Z,10.64
2018-05-17T05:33:41.464Z,10.60
2018-05-17T05:34:41.926Z,10.63
2018-05-17T05:35:41.818Z,10.67
2018-05-17T05:36:41.429Z,10.72
2018-05-17T05:37:41.976Z,10.71
2018-05-17T05:38:41.836Z,10.67
2018-05-17T05:39:41.629Z,10.68
2018-05-17T05:40:42.172Z,10.69
2018-05-17T05:42:03.065Z,10.68
2018-05-17T05:43:03.811Z,10.68
2018-05-17T05:44:03.438Z,10.72
2018-05-17T05:45:03.516Z,10.76
2018-05-17T05:46:04.486Z,10.78
2018-05-17T05:47:03.997Z,10.76
2018-05-17T05:48:03.773Z,10.76
2018-05-17T05:49:03.409Z,10.78
2018-05-17T05:50:04.452Z,10.81
2018-05-17T05:51:04.502Z,10.81
2018-05-17T05:52:04.099Z,10.82
2018-05-17T05:53:03.870Z,10.79
2018-05-17T05:54:03.259Z,10.75
2018-05-17T05:55:04.050Z,10.74
2018-05-17T05:56:03.702Z,10.78
2018-05-17T05:57:03.444Z,10.87
2018-05-17T05:58:04.129Z,10.90
2018-05-17T05:59:03.797Z,10.96
2018-05-17T06:00:03.294Z,10.99
2018-05-17T06:01:04.407Z,11.07
2018-05-17T06:02:04.054Z,11.08
2018-05-17T06:03:03.740Z,11.00
2018-05-17T06:04:03.430Z,11.00
2018-05-17T06:05:04.142Z,11.05
2018-05-17T06:06:03.588Z,11.11
2018-05-17T06:07:03.534Z,11.15
2018-05-17T06:08:03.457Z,11.15
2018-05-17T06:09:04.196Z,11.15
2018-05-17T06:10:03.784Z,11.25
2018-05-17T06:11:03.487Z,11.30
2018-05-17T06:12:04.242Z,11.36
2018-05-17T06:13:03.811Z,11.36
2018-05-17T06:14:03.454Z,11.37
2018-05-17T06:15:04.198Z,11.40
2018-05-17T06:16:04.101Z,11.41
2018-05-17T06:17:03.651Z,11.41
2018-05-17T06:18:03.940Z,11.35
2018-05-17T06:19:03.611Z,11.40
2018-05-17T06:20:03.592Z,11.41
2018-05-17T06:21:03.478Z,11.43
2018-05-17T06:22:04.058Z,11.50
2018-05-17T06:23:03.726Z,11.59
2018-05-17T06:24:24.834Z,11.72
2018-05-17T06:25:25.660Z,11.77
2018-05-17T06:26:37.656Z,11.81
2018-05-17T06:27:26.793Z,11.84
2018-05-17T06:28:25.279Z,11.84
2018-05-17T06:29:26.003Z,11.81
2018-05-17T06:30:25.628Z,11.75
2018-05-17T06:31:25.422Z,11.62
2018-05-17T06:32:24.917Z,11.55
2018-05-17T06:33:47.119Z,11.59
2018-05-17T06:34:48.121Z,11.60
2018-05-17T06:35:48.161Z,11.54
2018-05-17T06:37:30.700Z,11.66
2018-05-17T06:38:31.453Z,11.73
2018-05-17T06:39:31.200Z,11.90
2018-05-17T06:40:30.969Z,11.86
2018-05-17T06:41:31.046Z,11.81
2018-05-17T06:42:30.421Z,11.88
2018-05-17T06:43:31.314Z,12.00
2018-05-17T06:44:31.156Z,12.04
2018-05-17T06:45:31.781Z,12.03
2018-05-17T06:46:31.708Z,12.03
2018-05-17T06:47:31.622Z,12.07
2018-05-17T06:48:31.552Z,12.25
2018-05-17T06:49:31.458Z,12.85
2018-05-17T06:50:31.653Z,13.15
2018-05-17T06:51:31.251Z,13.23
2018-05-17T06:52:31.649Z,13.39
2018-05-17T06:53:31.243Z,13.38
2018-05-17T06:54:31.286Z,13.30
2018-05-17T06:55:30.713Z,13.22
2018-05-17T06:56:31.485Z,13.35
2018-05-17T06:57:31.249Z,13.44
2018-05-17T06:58:30.930Z,13.62
2018-05-17T06:59:30.645Z,13.81
2018-05-17T07:00:31.535Z,14.11
2018-05-17T07:01:31.553Z,13.99
2018-05-17T07:02:31.273Z,14.15
2018-05-17T07:03:31.093Z,14.82
2018-05-17T07:04:30.963Z,15.35
2018-05-17T07:05:30.813Z,15.90
2018-05-17T07:06:30.513Z,16.16
2018-05-17T07:07:31.198Z,16.05
2018-05-17T07:08:30.658Z,15.82
2018-05-17T07:09:31.584Z,15.58
2018-05-17T07:10:31.439Z,15.43
2018-05-17T07:11:31.020Z,15.44
2018-05-17T07:12:30.806Z,15.44
2018-05-17T07:13:31.399Z,15.36
2018-05-17T07:14:31.134Z,15.35
2018-05-17T07:15:30.987Z,15.36
2018-05-17T07:16:31.683Z,15.37
2018-05-17T07:17:31.168Z,15.18
2018-05-17T07:18:31.003Z,15.24
2018-05-17T07:20:13.609Z,14.85
2018-05-17T07:21:57.251Z,14.44
2018-05-17T07:22:57.931Z,14.37
2018-05-17T07:24:18.872Z,14.12
2018-05-17T07:25:19.610Z,14.17
2018-05-17T07:26:19.482Z,14.08
2018-05-17T07:27:41.095Z,14.08
2018-05-17T07:28:42.171Z,14.15
2018-05-17T07:29:41.030Z,14.20
2018-05-17T07:30:41.719Z,14.28
2018-05-17T07:31:41.441Z,14.20
2018-05-17T07:32:41.079Z,14.17
2018-05-17T07:33:42.277Z,14.26
2018-05-17T07:34:41.177Z,14.43
2018-05-17T07:35:41.789Z,14.63
2018-05-17T07:36:41.305Z,15.11
2018-05-17T07:37:41.198Z,15.22
2018-05-17T07:38:41.843Z,15.27
2018-05-17T07:39:41.428Z,15.37
2018-05-17T07:40:41.040Z,15.36
2018-05-17T07:41:41.685Z,15.15
2018-05-17T07:42:41.282Z,15.03
2018-05-17T07:43:41.060Z,14.85
2018-05-17T07:44:40.887Z,14.81
2018-05-17T07:45:41.855Z,14.60
2018-05-17T07:46:41.431Z,14.35
2018-05-17T07:47:41.296Z,14.25
2018-05-17T07:48:42.225Z,14.53
2018-05-17T07:49:40.762Z,15.35
2018-05-17T07:50:41.636Z,16.16
2018-05-17T07:51:41.406Z,16.15
2018-05-17T07:52:41.172Z,16.32
2018-05-17T07:53:41.013Z,16.33
2018-05-17T07:54:42.287Z,16.91
2018-05-17T07:55:41.346Z,17.22
2018-05-17T07:56:41.367Z,17.36
2018-05-17T07:57:41.002Z,17.38
2018-05-17T07:58:41.666Z,17.19
2018-05-17T08:00:03.423Z,16.87
2018-05-17T08:01:25.591Z,16.23
2018-05-17T08:02:26.273Z,15.88
2018-05-17T08:03:26.098Z,15.65
2018-05-17T08:04:26.912Z,15.40
2018-05-17T08:05:26.746Z,15.28
2018-05-17T08:06:26.721Z,15.25
2018-05-17T08:07:26.459Z,15.31
2018-05-17T08:08:26.202Z,15.40
2018-05-17T08:09:26.181Z,15.52
2018-05-17T08:10:26.067Z,15.37
2018-05-17T08:11:47.478Z,15.10
2018-05-17T08:14:14.823Z,14.88
2018-05-17T08:15:14.574Z,14.84
2018-05-17T08:16:15.036Z,14.82
2018-05-17T08:17:14.691Z,14.84
2018-05-17T08:18:14.276Z,14.88
2018-05-17T08:19:15.134Z,15.00
2018-05-17T08:20:15.070Z,14.99
2018-05-17T08:21:15.043Z,15.06
2018-05-17T08:22:14.970Z,15.86
2018-05-17T08:23:14.619Z,16.81
2018-05-17T08:24:14.270Z,17.14
2018-05-17T08:25:14.828Z,17.64
2018-05-17T08:26:14.372Z,18.40
2018-05-17T08:27:15.495Z,19.22
2018-05-17T08:28:14.597Z,19.11
2018-05-17T08:29:36.636Z,18.59
2018-05-17T08:30:37.133Z,18.22
2018-05-17T08:31:58.878Z,17.94
2018-05-17T08:32:59.912Z,17.67
2018-05-17T08:33:59.625Z,17.67
2018-05-17T08:34:59.331Z,17.63
2018-05-17T08:35:58.987Z,17.56
2018-05-17T08:36:59.742Z,17.56
2018-05-17T08:37:59.715Z,17.46
2018-05-17T08:38:59.501Z,17.06
2018-05-17T08:39:59.445Z,16.72
2018-05-17T08:40:59.387Z,16.75
2018-05-17T08:42:20.441Z,18.11
2018-05-17T08:43:21.428Z,18.41
2018-05-17T08:44:42.412Z,18.35
2018-05-17T08:45:43.250Z,18.08
2018-05-17T08:46:42.825Z,18.04
2018-05-17T08:47:42.541Z,17.98
2018-05-17T08:48:43.512Z,17.98
2018-05-17T08:49:43.042Z,18.10
2018-05-17T08:50:42.831Z,18.00
2018-05-17T08:52:03.908Z,18.03
2018-05-17T08:53:04.869Z,18.25
2018-05-17T08:54:26.258Z,17.95
2018-05-17T08:55:26.896Z,18.38
2018-05-17T08:56:48.021Z,18.84
2018-05-17T08:57:49.064Z,18.63
2018-05-17T08:59:10.642Z,18.25
2018-05-17T09:00:11.523Z,18.23
2018-05-17T09:01:33.086Z,18.04
2018-05-17T09:02:55.027Z,17.82
2018-05-17T09:03:55.647Z,17.67
2018-05-17T09:04:55.847Z,18.11
2018-05-17T09:05:55.465Z,18.86
2018-05-17T09:06:57.192Z,19.58
2018-05-17T09:08:17.082Z,19.89
2018-05-17T09:09:17.901Z,20.25
2018-05-17T09:10:17.679Z,20.72
2018-05-17T09:11:17.234Z,20.82
2018-05-17T09:12:18.035Z,21.02
2018-05-17T09:13:39.151Z,21.18
2018-05-17T09:14:39.617Z,21.61
2018-05-17T09:15:39.551Z,21.98
2018-05-17T09:16:39.276Z,22.41
2018-05-17T09:17:42.426Z,22.69
2018-05-17T09:19:01.550Z,23.03
2018-05-17T09:20:01.528Z,23.13
2018-05-17T09:21:01.138Z,22.81
2018-05-17T09:22:01.995Z,22.32
2018-05-17T09:23:02.632Z,21.70
2018-05-17T09:24:01.359Z,20.99
2018-05-17T09:25:01.008Z,21.32
2018-05-17T09:26:01.614Z,21.48
2018-05-17T09:27:01.695Z,21.45
2018-05-17T09:28:01.109Z,21.67
2018-05-17T09:29:02.035Z,21.37
2018-05-17T09:30:01.633Z,21.11
2018-05-17T09:31:01.372Z,20.85
2018-05-17T09:32:01.029Z,21.22
2018-05-17T09:33:01.981Z,20.67
2018-05-17T09:34:02.583Z,21.07
2018-05-17T09:35:01.214Z,21.92
2018-05-17T09:36:00.958Z,22.70
2018-05-17T09:37:01.602Z,22.47
2018-05-17T09:38:01.991Z,22.35
2018-05-17T09:39:25.936Z,22.69
2018-05-17T09:40:26.702Z,22.11
2018-05-17T09:41:26.649Z,21.85
2018-05-17T09:42:26.326Z,21.89
2018-05-17T09:43:25.849Z,22.54
2018-05-17T09:44:26.766Z,23.44
2018-05-17T09:45:26.479Z,23.47
2018-05-17T09:46:26.217Z,23.23
2018-05-17T09:47:26.038Z,22.43
2018-05-17T09:48:47.133Z,21.70
2018-05-17T09:49:47.806Z,21.66
2018-05-17T09:50:47.494Z,21.99
2018-05-17T09:51:47.293Z,22.73
2018-05-17T09:52:48.058Z,23.47
2018-05-17T09:53:48.039Z,24.02
2018-05-17T09:54:47.647Z,24.13
2018-05-17T09:55:47.301Z,24.50
2018-05-17T09:56:47.156Z,24.73
2018-05-17T09:57:47.864Z,24.57
2018-05-17T09:58:47.864Z,23.68
2018-05-17T09:59:47.458Z,23.65
2018-05-17T10:00:46.981Z,23.59
2018-05-17T10:01:47.658Z,23.36
2018-05-17T10:02:47.480Z,24.10
2018-05-17T10:03:47.445Z,24.36
2018-05-17T10:04:47.155Z,24.20
2018-05-17T10:05:48.112Z,23.92
2018-05-17T10:06:48.103Z,23.54
2018-05-17T10:08:09.532Z,24.03
2018-05-17T10:09:10.451Z,23.84
2018-05-17T10:10:10.312Z,23.78
2018-05-17T10:11:09.963Z,23.54
2018-05-17T10:12:31.667Z,23.23
2018-05-17T10:13:32.400Z,23.10
2018-05-17T10:14:32.081Z,22.93
2018-05-17T10:15:31.789Z,23.32
2018-05-17T10:16:54.359Z,23.24
2018-05-17T10:17:54.235Z,23.47
2018-05-17T10:18:54.768Z,23.58
2018-05-17T10:19:54.948Z,23.56
2018-05-17T10:20:54.664Z,23.48
2018-05-17T10:21:54.429Z,23.88
2018-05-17T10:22:55.241Z,23.73
2018-05-17T10:23:54.222Z,23.61
2018-05-17T10:24:54.747Z,24.05
2018-05-17T10:25:54.658Z,24.01
2018-05-17T10:26:54.272Z,23.13
2018-05-17T10:27:54.176Z,22.83
2018-05-17T10:28:54.891Z,22.99
2018-05-17T10:29:54.444Z,23.59
2018-05-17T10:30:54.128Z,23.63
2018-05-17T10:31:54.728Z,23.73
2018-05-17T10:32:54.571Z,24.17
2018-05-17T10:33:54.133Z,24.50
2018-05-17T10:34:54.978Z,25.07
2018-05-17T10:35:54.637Z,25.43
2018-05-17T10:36:54.165Z,25.93
2018-05-17T10:37:54.124Z,25.72
2018-05-17T10:39:16.051Z,25.32
2018-05-17T10:40:16.669Z,25.46
2018-05-17T10:41:16.606Z,24.45
2018-05-17T10:42:16.436Z,24.81
2018-05-17T10:43:15.967Z,24.99
2018-05-17T10:44:38.702Z,25.60
2018-05-17T10:45:39.358Z,25.51
2018-05-17T10:46:39.138Z,25.06
2018-05-17T10:48:00.643Z,24.88
2018-05-17T10:49:00.564Z,24.29
2018-05-17T10:50:01.275Z,23.06
2018-05-17T10:51:00.879Z,22.68
2018-05-17T10:52:00.765Z,23.06
2018-05-17T10:53:00.467Z,23.66
2018-05-17T10:54:01.191Z,24.17
2018-05-17T10:55:01.036Z,24.53
2018-05-17T10:56:00.784Z,25.16
2018-05-17T10:57:00.848Z,25.75
2018-05-17T10:58:01.566Z,25.46
2018-05-17T10:59:01.423Z,25.47
2018-05-17T11:00:45.302Z,24.57
2018-05-17T11:01:45.620Z,23.96
2018-05-17T11:02:49.588Z,23.80
2018-05-17T11:03:45.158Z,23.91
2018-05-17T11:04:46.128Z,24.32
2018-05-17T11:05:44.589Z,24.65
2018-05-17T11:06:44.663Z,25.13
2018-05-17T11:07:44.382Z,25.26
2018-05-17T11:08:45.088Z,25.68
2018-05-17T11:09:44.839Z,26.03
2018-05-17T11:11:06.318Z,25.62
2018-05-17T11:12:28.251Z,25.54
2018-05-17T11:13:29.184Z,25.85
2018-05-17T11:14:28.992Z,25.21
2018-05-17T11:15:28.644Z,25.14
2018-05-17T11:16:28.594Z,25.47
2018-05-17T11:17:29.238Z,25.38
2018-05-17T11:18:29.269Z,25.59
2018-05-17T11:19:29.006Z,25.50
2018-05-17T11:20:50.651Z,26.02
2018-05-17T11:21:50.469Z,26.31
2018-05-17T11:22:50.330Z,26.51
2018-05-17T11:23:51.031Z,26.60
2018-05-17T11:24:50.959Z,26.55
2018-05-17T11:25:50.667Z,26.47
2018-05-17T11:26:50.407Z,26.44
2018-05-17T11:27:51.354Z,26.71
2018-05-17T11:29:12.763Z,26.73
2018-05-17T11:30:13.525Z,26.59
2018-05-17T11:31:13.853Z,26.21
2018-05-17T11:32:13.601Z,25.28
2018-05-17T11:33:13.349Z,24.10
2018-05-17T11:34:12.917Z,23.48
2018-05-17T11:35:13.647Z,23.47
2018-05-17T11:36:13.354Z,23.13
2018-05-17T11:37:13.202Z,23.41
2018-05-17T11:38:13.218Z,23.56
2018-05-17T11:39:13.449Z,23.55
2018-05-17T11:40:13.417Z,23.84
2018-05-17T11:41:13.460Z,24.63
2018-05-17T11:42:13.202Z,24.92
2018-05-17T11:43:12.896Z,24.80
2018-05-17T11:44:13.874Z,24.86
2018-05-17T11:45:13.748Z,24.76
2018-05-17T11:46:13.368Z,24.47
2018-05-17T11:47:58.912Z,24.29
2018-05-17T11:48:58.529Z,25.08
2018-05-17T11:49:59.278Z,24.77
2018-05-17T11:50:58.902Z,24.47
2018-05-17T11:51:58.572Z,24.10
2018-05-17T11:52:59.101Z,23.92
2018-05-17T11:53:58.574Z,24.21
2018-05-17T11:54:59.196Z,24.42
2018-05-17T11:55:58.784Z,24.81
2018-05-17T11:56:58.569Z,24.74
2018-05-17T11:57:58.356Z,24.99
2018-05-17T11:59:20.408Z,25.43
2018-05-17T12:00:21.263Z,25.04
2018-05-17T12:01:21.143Z,24.80
2018-05-17T12:02:21.435Z,24.63
2018-05-17T12:03:21.255Z,24.48
2018-05-17T12:04:21.142Z,24.85
2018-05-17T12:05:20.928Z,24.63
2018-05-17T12:06:21.523Z,24.20
2018-05-17T12:07:21.270Z,24.01
2018-05-17T12:08:21.177Z,23.65
2018-05-17T12:09:20.973Z,23.95
2018-05-17T12:10:20.566Z,23.87
2018-05-17T12:11:21.169Z,23.77
2018-05-17T12:12:20.927Z,24.10
2018-05-17T12:13:20.540Z,23.77
2018-05-17T12:14:21.298Z,23.15
2018-05-17T12:15:21.175Z,23.44
2018-05-17T12:16:21.013Z,23.69
2018-05-17T12:17:20.532Z,23.55
2018-05-17T12:18:23.712Z,23.81
2018-05-17T12:19:21.367Z,24.24
2018-05-17T12:20:21.103Z,24.38
2018-05-17T12:21:21.400Z,24.48
2018-05-17T12:22:21.200Z,24.45
2018-05-17T12:23:20.823Z,24.36
2018-05-17T12:24:21.364Z,24.61
2018-05-17T12:25:20.782Z,24.40
2018-05-17T12:26:31.673Z,23.98
2018-05-17T12:27:21.623Z,23.86
2018-05-17T12:28:21.213Z,23.92
2018-05-17T12:29:21.007Z,23.77
2018-05-17T12:30:42.540Z,24.16
2018-05-17T12:31:43.267Z,24.26
2018-05-17T12:32:42.929Z,24.03
2018-05-17T12:33:42.677Z,23.50
2018-05-17T12:34:42.795Z,23.37
2018-05-17T12:35:42.905Z,23.36
2018-05-17T12:36:42.561Z,23.47
2018-05-17T12:37:43.254Z,23.12
2018-05-17T12:38:43.128Z,23.21
2018-05-17T12:39:44.131Z,23.37
2018-05-17T12:40:43.223Z,23.27
2018-05-17T12:41:43.077Z,23.65
2018-05-17T12:43:05.874Z,23.63
2018-05-17T12:44:29.152Z,23.84
2018-05-17T12:45:29.098Z,23.99
2018-05-17T12:46:28.860Z,24.23
2018-05-17T12:47:30.163Z,24.43
2018-05-17T12:48:29.107Z,24.40
2018-05-17T12:49:52.701Z,23.96
2018-05-17T12:50:52.489Z,23.92
2018-05-17T12:51:54.595Z,23.92
2018-05-17T12:52:52.496Z,24.23
2018-05-17T12:53:52.282Z,24.20
2018-05-17T12:54:53.192Z,24.84
2018-05-17T12:55:52.837Z,25.32
2018-05-17T12:56:52.696Z,25.58
2018-05-17T12:57:52.621Z,25.51
2018-05-17T12:59:36.145Z,25.48
2018-05-17T13:00:38.821Z,25.32
2018-05-17T13:02:20.308Z,24.61
2018-05-17T13:03:20.820Z,24.36
2018-05-17T13:04:43.756Z,23.09
2018-05-17T13:05:43.472Z,22.55
2018-05-17T13:06:43.252Z,22.63
2018-05-17T13:07:42.986Z,22.78
2018-05-17T13:08:42.972Z,22.84
2018-05-17T13:09:44.403Z,22.50
2018-05-17T13:10:44.333Z,22.85
2018-05-17T13:11:43.128Z,23.28
2018-05-17T13:12:43.388Z,23.15
2018-05-17T13:13:47.436Z,22.91
2018-05-17T13:14:43.206Z,23.12
2018-05-17T13:15:43.216Z,22.62
2018-05-17T13:16:43.607Z,22.48
2018-05-17T13:17:45.693Z,22.50
2018-05-17T13:18:43.065Z,22.84
2018-05-17T13:19:43.656Z,22.88
2018-05-17T13:21:05.810Z,22.81
2018-05-17T13:22:05.586Z,22.73
2018-05-17T13:23:05.130Z,22.57
2018-05-17T13:24:05.909Z,22.83
2018-05-17T13:25:06.008Z,22.96
2018-05-17T13:26:06.217Z,22.87
2018-05-17T13:27:06.499Z,22.43
2018-05-17T13:28:05.188Z,22.26
2018-05-17T13:29:07.278Z,22.14
2018-05-17T13:30:05.721Z,21.93
2018-05-17T13:31:08.393Z,21.89
2018-05-17T13:32:05.834Z,21.48
2018-05-17T13:33:13.295Z,21.33
2018-05-17T13:34:06.280Z,21.21
2018-05-17T13:35:09.607Z,21.11
2018-05-17T13:36:07.826Z,20.87